createdAt,value
2019-02-26T00:00:14.380Z,25.53
2019-02-26T00:02:41.622Z,25.13
2019-02-26T00:05:07.941Z,25.30
2019-02-26T00:07:34.089Z,25.13
2019-02-26T00:10:02.616Z,27.37
2019-02-26T00:12:31.119Z,25.57
2019-02-26T00:15:00.210Z,24.57
2019-02-26T00:17:26.064Z,24.33
2019-02-26T00:19:52.300Z,25.60
2019-02-26T00:22:18.743Z,23.90
2019-02-26T00:24:46.619Z,23.37
2019-02-26T00:27:12.933Z,22.73
2019-02-26T00:29:39.108Z,23.13
2019-02-26T00:32:06.992Z,22.63
2019-02-26T00:34:34.598Z,22.93
2019-02-26T00:37:02.180Z,21.20
2019-02-26T00:39:31.377Z,24.83
2019-02-26T00:41:58.828Z,25.03
2019-02-26T00:44:27.438Z,22.47
2019-02-26T00:46:55.721Z,22.47
2019-02-26T00:49:23.706Z,20.93
2019-02-26T00:51:52.333Z,21.27
2019-02-26T00:54:20.182Z,20.63
2019-02-26T00:56:46.388Z,20.87
2019-02-26T00:59:12.495Z,21.13
2019-02-26T01:01:39.918Z,20.33
2019-02-26T01:04:06.160Z,20.47
2019-02-26T01:06:33.535Z,21.23
2019-02-26T01:09:01.833Z,20.83
2019-02-26T01:11:30.218Z,20.00
2019-02-26T01:13:57.407Z,20.47
2019-02-26T01:16:24.817Z,20.83
2019-02-26T01:18:51.505Z,20.57
2019-02-26T01:21:22.146Z,19.83
2019-02-26T01:23:47.061Z,19.20
2019-02-26T01:26:13.378Z,19.37
2019-02-26T01:28:39.755Z,19.93
2019-02-26T01:31:07.357Z,20.20
2019-02-26T01:33:34.272Z,21.13
2019-02-26T01:36:02.536Z,22.27
2019-02-26T01:38:28.631Z,21.83
2019-02-26T01:40:55.953Z,19.97
2019-02-26T01:43:22.316Z,19.33
2019-02-26T01:45:50.829Z,19.37
2019-02-26T01:48:18.523Z,19.17
2019-02-26T01:50:44.950Z,20.23
2019-02-26T01:53:14.044Z,19.43
2019-02-26T01:55:42.120Z,19.73
2019-02-26T01:58:08.220Z,18.77
2019-02-26T02:00:34.351Z,17.83
2019-02-26T02:03:00.730Z,19.57
2019-02-26T02:05:29.438Z,19.30
2019-02-26T02:07:55.963Z,19.43
2019-02-26T02:10:22.466Z,19.13
2019-02-26T02:12:48.693Z,19.07
2019-02-26T02:15:17.923Z,19.83
2019-02-26T02:17:43.504Z,19.30
2019-02-26T02:20:16.412Z,20.00
2019-02-26T02:22:44.396Z,19.20
2019-02-26T02:25:11.023Z,19.03
2019-02-26T02:27:37.330Z,18.83
2019-02-26T02:30:14.172Z,19.53
2019-02-26T02:32:38.739Z,19.77
2019-02-26T02:35:07.418Z,18.30
2019-02-26T02:37:34.490Z,18.07
2019-02-26T02:40:00.877Z,19.23
2019-02-26T02:42:27.087Z,17.60
2019-02-26T02:44:53.182Z,19.60
2019-02-26T02:47:20.482Z,20.07
2019-02-26T02:49:47.689Z,19.43
2019-02-26T02:52:14.962Z,19.83
2019-02-26T02:54:43.800Z,19.07
2019-02-26T02:57:10.027Z,18.60
2019-02-26T02:59:41.758Z,19.47
2019-02-26T03:02:06.789Z,19.83
2019-02-26T03:04:34.758Z,19.23
2019-02-26T03:07:03.284Z,20.27
2019-02-26T03:09:31.249Z,19.20
2019-02-26T03:11:57.503Z,20.57
2019-02-26T03:14:24.790Z,20.27
2019-02-26T03:16:53.379Z,21.53
2019-02-26T03:19:18.921Z,20.77
2019-02-26T03:21:47.193Z,20.83
2019-02-26T03:24:14.246Z,21.07
2019-02-26T03:26:40.312Z,20.30
2019-02-26T03:29:06.477Z,20.33
2019-02-26T03:31:35.072Z,20.40
2019-02-26T03:34:10.526Z,19.00
2019-02-26T03:36:38.305Z,19.93
2019-02-26T03:39:08.570Z,21.63
2019-02-26T03:41:34.944Z,21.80
2019-02-26T03:44:06.378Z,22.60
2019-02-26T03:46:32.940Z,20.27
2019-02-26T03:49:02.486Z,20.67
2019-02-26T03:51:30.793Z,20.30
2019-02-26T03:53:57.206Z,19.80
2019-02-26T03:56:23.521Z,20.37
2019-02-26T03:58:52.149Z,19.93
2019-02-26T04:01:19.422Z,18.43
2019-02-26T04:03:46.397Z,19.37
2019-02-26T04:06:12.716Z,18.37
2019-02-26T04:08:39.053Z,19.70
2019-02-26T04:11:05.331Z,20.87
2019-02-26T04:13:31.655Z,18.43
2019-02-26T04:15:59.596Z,19.17
2019-02-26T04:18:26.137Z,18.27
2019-02-26T04:20:52.346Z,18.53
2019-02-26T04:23:19.888Z,19.37
2019-02-26T04:25:54.057Z,21.93
2019-02-26T04:28:49.332Z,18.37
2019-02-26T04:31:54.663Z,17.60
2019-02-26T04:34:24.723Z,19.07
2019-02-26T04:37:07.165Z,21.23
2019-02-26T04:40:12.100Z,19.10
2019-02-26T04:42:48.629Z,17.10
2019-02-26T04:45:24.551Z,18.50
2019-02-26T04:47:55.461Z,18.80
2019-02-26T04:50:26.128Z,18.30
2019-02-26T04:52:50.278Z,18.80
2019-02-26T04:55:16.510Z,24.23
2019-02-26T04:57:45.657Z,24.90
2019-02-26T05:00:12.283Z,20.27
2019-02-26T05:02:38.593Z,19.87
2019-02-26T05:05:06.464Z,20.87
2019-02-26T05:07:32.968Z,20.83
2019-02-26T05:10:02.148Z,21.03
2019-02-26T05:12:30.755Z,24.43
2019-02-26T05:14:55.919Z,24.33
2019-02-26T05:17:24.653Z,21.80
2019-02-26T05:19:52.403Z,20.67
2019-02-26T05:22:19.838Z,22.00
2019-02-26T05:24:47.419Z,21.97
2019-02-26T05:27:18.898Z,20.80
2019-02-26T05:29:46.644Z,22.13
2019-02-26T05:32:12.506Z,21.30
2019-02-26T05:34:39.910Z,22.97
2019-02-26T05:37:08.122Z,19.97
2019-02-26T05:39:43.067Z,22.07
2019-02-26T05:42:13.451Z,22.37
2019-02-26T05:44:39.652Z,24.10
2019-02-26T05:47:13.229Z,25.63
2019-02-26T05:49:41.433Z,28.37
2019-02-26T05:52:08.161Z,23.70
2019-02-26T05:54:34.377Z,20.97
2019-02-26T05:57:27.086Z,23.60
2019-02-26T05:59:41.891Z,23.30
2019-02-26T06:02:10.599Z,26.83
2019-02-26T06:04:44.387Z,23.53
2019-02-26T06:07:11.289Z,24.13
2019-02-26T06:09:37.623Z,21.17
2019-02-26T06:12:11.751Z,21.97
2019-02-26T06:14:43.868Z,23.23
2019-02-26T06:17:15.537Z,22.07
2019-02-26T06:19:44.954Z,22.03
2019-02-26T06:22:17.035Z,22.20
2019-02-26T06:24:40.202Z,22.83
2019-02-26T06:27:08.645Z,23.33
2019-02-26T06:29:35.578Z,24.13
2019-02-26T06:32:10.120Z,23.17
2019-02-26T06:34:38.395Z,22.73
2019-02-26T06:37:16.411Z,22.43
2019-02-26T06:39:42.669Z,22.13
2019-02-26T06:42:10.319Z,20.07
2019-02-26T06:44:38.816Z,20.93
2019-02-26T06:47:09.047Z,21.13
2019-02-26T06:49:35.114Z,24.63
2019-02-26T06:52:02.006Z,21.60
2019-02-26T06:54:29.055Z,21.63
2019-02-26T06:56:58.037Z,21.50
2019-02-26T06:59:33.797Z,21.97
2019-02-26T07:01:59.058Z,19.27
2019-02-26T07:04:29.397Z,19.07
2019-02-26T07:06:55.357Z,21.17
2019-02-26T07:09:21.922Z,20.83
2019-02-26T07:11:48.163Z,21.37
2019-02-26T07:14:16.559Z,21.70
2019-02-26T07:16:42.771Z,20.30
2019-02-26T07:19:11.552Z,21.03
2019-02-26T07:21:38.038Z,20.43
2019-02-26T07:24:07.659Z,23.80
2019-02-26T07:26:33.797Z,20.60
2019-02-26T07:29:00.029Z,21.17
2019-02-26T07:31:26.924Z,22.03
2019-02-26T07:33:56.367Z,23.20
2019-02-26T07:36:23.692Z,21.57
2019-02-26T07:38:51.982Z,21.83
2019-02-26T07:41:20.701Z,22.43
2019-02-26T07:43:49.287Z,23.37
2019-02-26T07:46:17.058Z,23.00
2019-02-26T07:48:43.424Z,22.10
2019-02-26T07:51:09.814Z,22.43
2019-02-26T07:53:36.229Z,22.37
2019-02-26T07:56:04.517Z,23.37
2019-02-26T07:58:31.424Z,21.50
2019-02-26T08:00:58.847Z,24.63
2019-02-26T08:03:26.915Z,23.57
2019-02-26T08:05:53.279Z,23.90
2019-02-26T08:08:21.021Z,23.33
2019-02-26T08:10:48.893Z,24.07
2019-02-26T08:13:15.748Z,22.07
2019-02-26T08:15:41.963Z,21.97
2019-02-26T08:18:08.132Z,22.83
2019-02-26T08:20:35.679Z,22.63
2019-02-26T08:23:02.536Z,21.67
2019-02-26T08:25:31.440Z,21.53
2019-02-26T08:27:59.351Z,21.23
2019-02-26T08:30:26.181Z,20.13
2019-02-26T08:32:54.264Z,21.10
2019-02-26T08:35:20.826Z,21.50
2019-02-26T08:37:47.253Z,20.27
2019-02-26T08:40:13.886Z,20.77
2019-02-26T08:42:40.222Z,21.10
2019-02-26T08:45:09.981Z,21.33
2019-02-26T08:47:36.406Z,20.03
2019-02-26T08:50:07.377Z,20.67
2019-02-26T08:52:33.854Z,20.33
2019-02-26T08:55:00.035Z,19.27
2019-02-26T08:57:27.490Z,20.77
2019-02-26T08:59:54.646Z,20.07
2019-02-26T09:02:21.087Z,20.10
2019-02-26T09:04:47.763Z,20.90
2019-02-26T09:07:16.452Z,20.30
2019-02-26T09:09:42.539Z,19.77
2019-02-26T09:12:08.847Z,21.67
2019-02-26T09:14:37.575Z,20.70
2019-02-26T09:17:04.477Z,21.60
2019-02-26T09:19:33.125Z,20.90
2019-02-26T09:22:00.253Z,21.03
2019-02-26T09:24:26.541Z,20.77
2019-02-26T09:26:54.840Z,20.93
2019-02-26T09:29:22.230Z,20.83
2019-02-26T09:31:48.595Z,19.77
2019-02-26T09:34:14.801Z,20.40
2019-02-26T09:36:42.001Z,22.13
2019-02-26T09:39:10.558Z,21.87
2019-02-26T09:41:38.522Z,20.90
2019-02-26T09:44:06.795Z,21.73
2019-02-26T09:46:36.333Z,21.90
2019-02-26T09:49:03.128Z,22.13
2019-02-26T09:51:35.151Z,21.90
2019-02-26T09:54:01.132Z,22.27
2019-02-26T09:56:27.438Z,20.83
2019-02-26T09:58:53.708Z,21.90
2019-02-26T10:01:19.928Z,22.87
2019-02-26T10:03:46.077Z,21.27
2019-02-26T10:06:14.145Z,21.80
2019-02-26T10:08:40.270Z,21.97
2019-02-26T10:11:06.589Z,22.07
2019-02-26T10:13:32.798Z,22.63
2019-02-26T10:16:01.223Z,22.13
2019-02-26T10:18:27.907Z,21.60
2019-02-26T10:20:55.449Z,21.53
2019-02-26T10:23:23.517Z,22.30
2019-02-26T10:25:53.056Z,22.00
2019-02-26T10:28:19.509Z,22.23
2019-02-26T10:30:45.936Z,23.97
2019-02-26T10:33:12.167Z,23.40
2019-02-26T10:35:39.651Z,23.60
2019-02-26T10:38:08.980Z,23.40
2019-02-26T10:40:40.766Z,24.40
2019-02-26T10:43:03.228Z,24.67
2019-02-26T10:45:29.716Z,26.27
2019-02-26T10:47:56.917Z,25.03
2019-02-26T10:50:31.551Z,26.07
2019-02-26T10:53:01.400Z,25.67
2019-02-26T10:55:30.508Z,25.43
2019-02-26T10:57:54.822Z,24.93
2019-02-26T11:00:26.013Z,24.73
2019-02-26T11:02:54.185Z,23.67
2019-02-26T11:05:26.208Z,23.13
2019-02-26T11:07:53.153Z,24.57
2019-02-26T11:10:20.827Z,23.80
2019-02-26T11:12:48.245Z,24.33
2019-02-26T11:15:16.857Z,25.83
2019-02-26T11:17:45.590Z,25.60
2019-02-26T11:20:13.816Z,27.33
2019-02-26T11:22:42.250Z,27.17
2019-02-26T11:25:10.370Z,27.23
2019-02-26T11:27:38.032Z,27.37
2019-02-26T11:30:20.552Z,27.37
2019-02-26T11:32:46.237Z,26.97
2019-02-26T11:35:14.669Z,26.80
2019-02-26T11:37:42.432Z,26.57
2019-02-26T11:40:11.375Z,27.60
2019-02-26T11:42:37.626Z,28.07
2019-02-26T11:45:11.776Z,27.33
2019-02-26T11:47:39.152Z,27.87
2019-02-26T11:50:11.707Z,25.27
2019-02-26T11:52:37.585Z,25.53
2019-02-26T11:55:06.581Z,25.70
2019-02-26T11:57:37.672Z,23.20
2019-02-26T12:00:09.178Z,24.83
2019-02-26T12:02:37.093Z,25.97
2019-02-26T12:05:05.993Z,24.80
2019-02-26T12:07:34.849Z,25.73
2019-02-26T12:10:08.711Z,25.08
2019-02-26T12:12:31.099Z,24.77
2019-02-26T12:14:58.435Z,24.40
2019-02-26T12:17:24.716Z,24.53
2019-02-26T12:22:31.456Z,26.33
2019-02-26T12:24:58.877Z,26.17
2019-02-26T12:27:25.877Z,25.00
2019-02-26T12:29:54.376Z,25.53
2019-02-26T12:32:22.366Z,25.87
2019-02-26T12:34:51.284Z,23.55
2019-02-26T12:37:16.617Z,23.67
2019-02-26T12:39:43.738Z,23.90
2019-02-26T12:42:13.442Z,24.23
2019-02-26T12:44:42.361Z,22.93
2019-02-26T12:47:18.121Z,24.05
2019-02-26T12:49:45.132Z,23.77
2019-02-26T12:52:14.961Z,24.47
2019-02-26T12:54:42.728Z,24.83
2019-02-26T12:57:08.695Z,23.90
2019-02-26T12:59:37.610Z,22.73
2019-02-26T13:02:06.554Z,22.30
2019-02-26T13:04:33.135Z,22.63
2019-02-26T13:06:59.333Z,21.97
2019-02-26T13:09:26.897Z,18.60
2019-02-26T13:12:01.292Z,18.97
2019-02-26T13:14:21.297Z,19.43
2019-02-26T13:16:48.844Z,19.23
2019-02-26T13:19:21.437Z,19.12
2019-02-26T13:21:44.266Z,19.05
2019-02-26T13:26:38.955Z,18.00
2019-02-26T13:29:16.297Z,17.52
2019-02-26T13:31:50.787Z,17.15
2019-02-26T13:36:43.750Z,18.15
2019-02-26T13:39:09.842Z,19.30
2019-02-26T13:44:09.678Z,19.05
2019-02-26T13:46:38.244Z,18.95
2019-02-26T13:49:05.824Z,18.55
2019-02-26T13:51:32.484Z,17.55
2019-02-26T13:53:58.636Z,18.02
2019-02-26T13:56:24.823Z,17.32
2019-02-26T13:58:50.948Z,18.12
2019-02-26T14:01:17.133Z,18.87
2019-02-26T14:03:43.573Z,19.80
2019-02-26T14:06:09.750Z,20.10
2019-02-26T14:08:36.455Z,18.98
2019-02-26T14:11:06.147Z,19.40
2019-02-26T14:13:37.717Z,19.07
2019-02-26T14:16:08.126Z,18.07
2019-02-26T14:18:34.232Z,18.57
2019-02-26T14:23:39.432Z,16.10
2019-02-26T14:26:06.424Z,16.23
2019-02-26T14:28:32.617Z,14.53
2019-02-26T14:30:58.831Z,15.85
2019-02-26T14:33:25.077Z,15.30
2019-02-26T14:35:51.247Z,14.53
2019-02-26T14:38:17.579Z,11.97
2019-02-26T14:40:44.834Z,13.88
2019-02-26T14:43:11.247Z,14.38
2019-02-26T14:45:47.214Z,12.47
2019-02-26T14:48:13.865Z,12.60
2019-02-26T14:50:40.366Z,12.88
2019-02-26T14:53:12.736Z,13.00
2019-02-26T14:55:38.912Z,11.68
2019-02-26T14:58:10.581Z,13.75
2019-02-26T15:00:37.160Z,14.90
2019-02-26T15:03:07.181Z,15.25
2019-02-26T15:05:33.412Z,14.47
2019-02-26T15:07:59.752Z,14.90
2019-02-26T15:10:25.966Z,14.33
2019-02-26T15:12:52.797Z,15.10
2019-02-26T15:15:19.470Z,14.63
2019-02-26T15:17:45.937Z,14.00
2019-02-26T15:20:16.935Z,13.68
2019-02-26T15:22:43.242Z,12.80
2019-02-26T15:25:15.857Z,13.68
2019-02-26T15:27:43.491Z,13.53
2019-02-26T15:30:16.246Z,13.43
2019-02-26T15:32:44.178Z,13.10
2019-02-26T15:35:10.380Z,12.93
2019-02-26T15:37:38.337Z,13.55
2019-02-26T15:40:10.486Z,12.68
2019-02-26T15:42:36.841Z,14.20
2019-02-26T15:45:06.776Z,14.10
2019-02-26T15:47:33.422Z,14.63
2019-02-26T15:49:59.912Z,14.38
2019-02-26T15:52:32.944Z,14.28
2019-02-26T15:54:59.162Z,15.45
2019-02-26T15:57:25.494Z,15.78
2019-02-26T15:59:51.740Z,17.55
2019-02-26T16:02:17.955Z,16.97
2019-02-26T16:04:45.229Z,17.65
2019-02-26T16:07:11.437Z,16.87
2019-02-26T16:09:37.658Z,16.77
2019-02-26T16:12:06.400Z,18.02
2019-02-26T16:14:32.572Z,17.40
2019-02-26T16:16:58.911Z,16.37
2019-02-26T16:19:25.195Z,16.65
2019-02-26T16:21:51.315Z,16.25
2019-02-26T16:24:17.464Z,15.85
2019-02-26T16:26:43.782Z,16.85
2019-02-26T16:29:09.991Z,15.45
2019-02-26T16:31:36.314Z,17.20
2019-02-26T16:34:06.237Z,17.95
2019-02-26T16:36:32.663Z,16.70
2019-02-26T16:38:58.793Z,16.85
2019-02-26T16:41:24.900Z,18.17
2019-02-26T16:43:51.825Z,17.63
2019-02-26T16:46:18.822Z,16.60
2019-02-26T16:48:45.152Z,16.17
2019-02-26T16:51:21.578Z,16.40
2019-02-26T16:53:46.756Z,16.90
2019-02-26T16:56:13.305Z,17.27
2019-02-26T16:58:40.045Z,17.80
2019-02-26T17:01:13.177Z,18.03
2019-02-26T17:03:45.964Z,17.37
2019-02-26T17:06:12.370Z,18.00
2019-02-26T17:08:38.725Z,17.77
2019-02-26T17:11:08.979Z,18.07
2019-02-26T17:13:37.201Z,19.23
2019-02-26T17:16:05.663Z,19.37
2019-02-26T17:18:36.807Z,19.77
2019-02-26T17:21:05.624Z,20.37
2019-02-26T17:23:31.896Z,20.83
2019-02-26T17:26:00.373Z,19.83
2019-02-26T17:28:26.682Z,19.60
2019-02-26T17:30:53.348Z,18.27
2019-02-26T17:33:19.520Z,20.43
2019-02-26T17:35:45.749Z,22.07
2019-02-26T17:38:12.893Z,21.70
2019-02-26T17:40:40.097Z,21.27
2019-02-26T17:43:06.563Z,22.47
2019-02-26T17:45:34.936Z,20.57
2019-02-26T17:48:04.028Z,20.87
2019-02-26T17:50:38.022Z,19.67
2019-02-26T17:53:04.479Z,22.23
2019-02-26T17:55:30.817Z,21.20
2019-02-26T17:57:57.143Z,22.33
2019-02-26T18:00:25.650Z,20.77
2019-02-26T18:02:51.842Z,20.83
2019-02-26T18:05:18.105Z,21.43
2019-02-26T18:07:44.345Z,21.23
2019-02-26T18:10:13.523Z,21.50
2019-02-26T18:12:42.641Z,19.70
2019-02-26T18:15:10.070Z,21.47
2019-02-26T18:17:36.400Z,21.13
2019-02-26T18:20:05.338Z,23.43
2019-02-26T18:22:31.818Z,22.70
2019-02-26T18:24:58.124Z,24.27
2019-02-26T18:27:24.551Z,23.87
2019-02-26T18:29:50.797Z,22.30
2019-02-26T18:32:17.158Z,22.87
2019-02-26T18:34:43.617Z,23.53
2019-02-26T18:37:10.093Z,22.40
2019-02-26T18:39:36.484Z,22.17
2019-02-26T18:42:02.890Z,22.37
2019-02-26T18:44:29.377Z,21.87
2019-02-26T18:46:55.626Z,21.37
2019-02-26T18:49:23.089Z,22.43
2019-02-26T18:51:49.869Z,22.80
2019-02-26T18:54:17.716Z,22.37
2019-02-26T18:56:44.552Z,20.53
2019-02-26T18:59:10.673Z,22.77
2019-02-26T19:01:37.077Z,22.47
2019-02-26T19:04:03.414Z,20.53
2019-02-26T19:06:29.727Z,21.93
2019-02-26T19:08:56.037Z,22.60
2019-02-26T19:11:25.359Z,20.87
2019-02-26T19:13:51.427Z,23.47
2019-02-26T19:16:20.417Z,22.37
2019-02-26T19:18:46.087Z,22.60
2019-02-26T19:21:12.373Z,21.83
2019-02-26T19:23:38.919Z,21.73
2019-02-26T19:26:06.406Z,23.13
2019-02-26T19:28:32.561Z,22.27
2019-02-26T19:30:58.978Z,23.73
2019-02-26T19:33:25.260Z,23.63
2019-02-26T19:35:51.702Z,23.20
2019-02-26T19:38:17.949Z,24.73
2019-02-26T19:41:03.357Z,23.77
2019-02-26T19:43:29.811Z,23.67
2019-02-26T19:45:57.121Z,22.60
2019-02-26T19:48:23.576Z,22.93
2019-02-26T19:50:49.822Z,24.03
2019-02-26T19:53:16.324Z,23.07
2019-02-26T19:55:48.814Z,22.93
2019-02-26T19:58:12.726Z,23.47
2019-02-26T20:00:38.951Z,24.00
2019-02-26T20:03:06.242Z,22.90
2019-02-26T20:05:32.498Z,25.57
2019-02-26T20:07:58.621Z,25.57
2019-02-26T20:10:24.831Z,26.43
2019-02-26T20:12:51.023Z,25.17
2019-02-26T20:15:17.210Z,26.87
2019-02-26T20:17:43.693Z,25.83
2019-02-26T20:20:16.748Z,27.17
2019-02-26T20:22:43.214Z,28.67
2019-02-26T20:25:13.914Z,28.30
2019-02-26T20:27:40.163Z,27.40
2019-02-26T20:30:16.733Z,27.70
2019-02-26T20:32:43.034Z,27.37
2019-02-26T20:35:11.934Z,31.27
2019-02-26T20:37:40.145Z,30.33
2019-02-26T20:40:18.416Z,27.43
2019-02-26T20:42:45.205Z,27.57
2019-02-26T20:45:17.816Z,37.80
2019-02-26T20:47:46.506Z,33.17
2019-02-26T20:50:12.791Z,34.03
2019-02-26T20:52:39.229Z,35.10
2019-02-26T20:55:23.719Z,35.13
2019-02-26T21:00:25.254Z,31.03
2019-02-26T21:02:58.376Z,31.10
2019-02-26T21:05:25.158Z,32.97
2019-02-26T21:07:51.455Z,31.07
2019-02-26T21:10:18.565Z,33.80
2019-02-26T21:12:45.124Z,30.90
2019-02-26T21:15:24.030Z,35.20
2019-02-26T21:17:58.079Z,37.00
2019-02-26T21:20:24.989Z,38.00
2019-02-26T21:22:54.510Z,37.13
2019-02-26T21:25:19.106Z,36.13
2019-02-26T21:27:45.932Z,37.03
2019-02-26T21:30:14.448Z,33.33
2019-02-26T21:32:45.420Z,33.70
2019-02-26T21:35:13.106Z,35.17
2019-02-26T21:37:40.353Z,33.77
2019-02-26T21:40:17.932Z,33.60
2019-02-26T21:42:50.724Z,32.90
2019-02-26T21:45:17.455Z,31.77
2019-02-26T21:47:43.776Z,32.20
2019-02-26T21:50:13.328Z,31.03
2019-02-26T21:52:42.139Z,29.70
2019-02-26T21:55:13.393Z,29.97
2019-02-26T21:57:39.566Z,29.27
2019-02-26T22:00:20.281Z,28.53
2019-02-26T22:02:52.071Z,29.67
2019-02-26T22:05:16.945Z,29.07
2019-02-26T22:07:44.478Z,28.60
2019-02-26T22:10:15.163Z,29.70
2019-02-26T22:12:42.382Z,29.83
2019-02-26T22:15:11.093Z,28.80
2019-02-26T22:17:37.449Z,28.77
2019-02-26T22:20:23.694Z,29.03
2019-02-26T22:22:45.280Z,28.83
2019-02-26T22:25:15.825Z,29.50
2019-02-26T22:27:40.916Z,29.97
2019-02-26T22:30:10.821Z,29.47
2019-02-26T22:32:38.751Z,28.03
2019-02-26T22:35:07.187Z,28.90
2019-02-26T22:37:33.379Z,30.97
2019-02-26T22:39:59.688Z,30.53
2019-02-26T22:42:26.535Z,30.67
2019-02-26T22:44:54.839Z,31.60
2019-02-26T22:47:21.007Z,32.83
2019-02-26T22:49:47.350Z,33.40
2019-02-26T22:52:13.443Z,32.07
2019-02-26T22:54:40.718Z,29.97
2019-02-26T22:57:07.618Z,29.50
2019-02-26T22:59:33.845Z,32.10
2019-02-26T23:02:00.241Z,32.90
2019-02-26T23:04:32.566Z,29.90
2019-02-26T23:06:58.954Z,30.53
2019-02-26T23:09:26.863Z,30.00
2019-02-26T23:11:53.229Z,29.60
2019-02-26T23:14:19.938Z,30.37
2019-02-26T23:16:46.375Z,30.10
2019-02-26T23:19:12.974Z,30.20
2019-02-26T23:21:40.841Z,30.10
2019-02-26T23:24:07.232Z,29.23
2019-02-26T23:26:34.132Z,29.03
2019-02-26T23:29:04.413Z,29.67
2019-02-26T23:31:32.876Z,29.27
2019-02-26T23:33:59.527Z,29.70
2019-02-26T23:36:28.579Z,30.17
2019-02-26T23:38:54.031Z,29.63
2019-02-26T23:41:20.426Z,29.67
2019-02-26T23:43:46.726Z,29.00
2019-02-26T23:46:14.041Z,29.30
2019-02-26T23:48:40.993Z,29.63
2019-02-26T23:51:08.841Z,29.37
2019-02-26T23:53:34.975Z,30.97
2019-02-26T23:56:04.970Z,29.73
2019-02-26T23:58:31.674Z,29.00
